sensor_id;sensor_type;location;lat;lon;timestamp;P1;durP1;ratioP1;P2;durP2;ratioP2
39308;SDS011;26019;47.510;19.122;2024-02-26T00:03:33;17.58;;;9.93;;
39308;SDS011;26019;47.510;19.122;2024-02-26T00:13:37;15.98;;;10.00;;
39308;SDS011;26019;47.510;19.122;2024-02-26T00:23:39;14.52;;;9.13;;
39308;SDS011;26019;47.510;19.122;2024-02-26T00:33:41;14.50;;;9.85;;
39308;SDS011;26019;47.510;19.122;2024-02-26T00:43:45;14.98;;;9.07;;
39308;SDS011;26019;47.510;19.122;2024-02-26T00:53:47;17.73;;;10.07;;
39308;SDS011;26019;47.510;19.122;2024-02-26T01:03:49;15.30;;;9.48;;
39308;SDS011;26019;47.510;19.122;2024-02-26T01:13:51;18.50;;;10.50;;
39308;SDS011;26019;47.510;19.122;2024-02-26T01:23:59;15.95;;;11.05;;
39308;SDS011;26019;47.510;19.122;2024-02-26T01:34:08;19.50;;;10.67;;
39308;SDS011;26019;47.510;19.122;2024-02-26T01:44:14;14.95;;;9.30;;
39308;SDS011;26019;47.510;19.122;2024-02-26T01:54:15;17.42;;;10.45;;
39308;SDS011;26019;47.510;19.122;2024-02-26T02:04:18;13.77;;;9.60;;
39308;SDS011;26019;47.510;19.122;2024-02-26T02:14:21;17.98;;;10.00;;
39308;SDS011;26019;47.510;19.122;2024-02-26T02:24:24;23.10;;;11.77;;
39308;SDS011;26019;47.510;19.122;2024-02-26T02:34:28;17.77;;;11.30;;
39308;SDS011;26019;47.510;19.122;2024-02-26T02:44:30;20.20;;;11.83;;
39308;SDS011;26019;47.510;19.122;2024-02-26T02:54:32;16.75;;;10.57;;
39308;SDS011;26019;47.510;19.122;2024-02-26T03:04:34;17.37;;;11.00;;
39308;SDS011;26019;47.510;19.122;2024-02-26T03:14:38;20.48;;;11.27;;
39308;SDS011;26019;47.510;19.122;2024-02-26T03:24:40;16.40;;;11.05;;
39308;SDS011;26019;47.510;19.122;2024-02-26T03:34:42;20.42;;;11.48;;
39308;SDS011;26019;47.510;19.122;2024-02-26T03:44:45;18.45;;;11.48;;
39308;SDS011;26019;47.510;19.122;2024-02-26T03:54:48;20.27;;;12.35;;
39308;SDS011;26019;47.510;19.122;2024-02-26T04:04:50;19.50;;;11.88;;
39308;SDS011;26019;47.510;19.122;2024-02-26T04:14:52;19.02;;;10.65;;
39308;SDS011;26019;47.510;19.122;2024-02-26T04:24:55;17.33;;;11.25;;
39308;SDS011;26019;47.510;19.122;2024-02-26T04:34:57;17.70;;;11.07;;
39308;SDS011;26019;47.510;19.122;2024-02-26T04:45:03;14.57;;;10.23;;
39308;SDS011;26019;47.510;19.122;2024-02-26T04:55:06;18.83;;;10.95;;
39308;SDS011;26019;47.510;19.122;2024-02-26T05:05:08;21.07;;;11.43;;
39308;SDS011;26019;47.510;19.122;2024-02-26T05:15:20;18.80;;;10.43;;
39308;SDS011;26019;47.510;19.122;2024-02-26T05:25:22;16.52;;;10.32;;
39308;SDS011;26019;47.510;19.122;2024-02-26T05:35:25;19.70;;;11.20;;
39308;SDS011;26019;47.510;19.122;2024-02-26T05:55:30;19.65;;;11.20;;
39308;SDS011;26019;47.510;19.122;2024-02-26T06:05:32;20.42;;;11.10;;
39308;SDS011;26019;47.510;19.122;2024-02-26T06:15:34;20.80;;;11.35;;
39308;SDS011;26019;47.510;19.122;2024-02-26T06:25:35;18.88;;;11.40;;
39308;SDS011;26019;47.510;19.122;2024-02-26T06:35:37;20.80;;;12.18;;
39308;SDS011;26019;47.510;19.122;2024-02-26T06:45:39;24.43;;;13.30;;
39308;SDS011;26019;47.510;19.122;2024-02-26T06:55:41;17.95;;;11.25;;
39308;SDS011;26019;47.510;19.122;2024-02-26T07:05:46;19.23;;;12.13;;
39308;SDS011;26019;47.510;19.122;2024-02-26T07:15:48;18.53;;;11.83;;
39308;SDS011;26019;47.510;19.122;2024-02-26T07:25:50;21.35;;;13.13;;
39308;SDS011;26019;47.510;19.122;2024-02-26T07:35:54;16.95;;;12.40;;
39308;SDS011;26019;47.510;19.122;2024-02-26T07:45:57;17.52;;;11.93;;
39308;SDS011;26019;47.510;19.122;2024-02-26T07:55:59;19.98;;;13.35;;
39308;SDS011;26019;47.510;19.122;2024-02-26T08:06:04;22.40;;;14.77;;
39308;SDS011;26019;47.510;19.122;2024-02-26T08:16:06;23.92;;;15.25;;
39308;SDS011;26019;47.510;19.122;2024-02-26T08:26:08;24.27;;;17.90;;
39308;SDS011;26019;47.510;19.122;2024-02-26T08:36:13;24.70;;;18.77;;
39308;SDS011;26019;47.510;19.122;2024-02-26T08:56:17;27.05;;;19.05;;
39308;SDS011;26019;47.510;19.122;2024-02-26T09:06:20;28.95;;;20.52;;
39308;SDS011;26019;47.510;19.122;2024-02-26T09:16:22;31.57;;;22.20;;
39308;SDS011;26019;47.510;19.122;2024-02-26T09:26:24;32.93;;;21.53;;
39308;SDS011;26019;47.510;19.122;2024-02-26T09:36:27;37.00;;;21.27;;
39308;SDS011;26019;47.510;19.122;2024-02-26T09:46:30;28.80;;;19.73;;
39308;SDS011;26019;47.510;19.122;2024-02-26T09:56:33;27.23;;;18.55;;
39308;SDS011;26019;47.510;19.122;2024-02-26T10:06:39;25.77;;;18.63;;
39308;SDS011;26019;47.510;19.122;2024-02-26T10:16:45;25.50;;;17.52;;
39308;SDS011;26019;47.510;19.122;2024-02-26T10:26:50;26.42;;;17.83;;
39308;SDS011;26019;47.510;19.122;2024-02-26T10:36:52;23.45;;;17.50;;
39308;SDS011;26019;47.510;19.122;2024-02-26T10:46:57;24.05;;;17.70;;
39308;SDS011;26019;47.510;19.122;2024-02-26T10:57:01;22.60;;;17.45;;
39308;SDS011;26019;47.510;19.122;2024-02-26T11:07:09;23.85;;;16.23;;
39308;SDS011;26019;47.510;19.122;2024-02-26T11:17:12;21.63;;;14.00;;
39308;SDS011;26019;47.510;19.122;2024-02-26T11:27:18;21.23;;;13.57;;
39308;SDS011;26019;47.510;19.122;2024-02-26T11:37:23;12.18;;;9.40;;
39308;SDS011;26019;47.510;19.122;2024-02-26T11:47:26;14.65;;;9.73;;
39308;SDS011;26019;47.510;19.122;2024-02-26T11:57:38;12.20;;;8.93;;
39308;SDS011;26019;47.510;19.122;2024-02-26T12:17:49;14.43;;;8.35;;
39308;SDS011;26019;47.510;19.122;2024-02-26T12:27:54;8.23;;;6.10;;
39308;SDS011;26019;47.510;19.122;2024-02-26T12:37:57;13.27;;;5.32;;
39308;SDS011;26019;47.510;19.122;2024-02-26T12:48:00;9.30;;;5.70;;
39308;SDS011;26019;47.510;19.122;2024-02-26T12:58:02;7.53;;;5.82;;
39308;SDS011;26019;47.510;19.122;2024-02-26T13:08:05;9.43;;;5.30;;
39308;SDS011;26019;47.510;19.122;2024-02-26T13:18:10;5.93;;;5.22;;
39308;SDS011;26019;47.510;19.122;2024-02-26T13:28:17;7.85;;;5.50;;
39308;SDS011;26019;47.510;19.122;2024-02-26T13:38:20;4.40;;;3.35;;
39308;SDS011;26019;47.510;19.122;2024-02-26T13:48:22;6.78;;;3.25;;
39308;SDS011;26019;47.510;19.122;2024-02-26T13:58:25;5.57;;;3.22;;
39308;SDS011;26019;47.510;19.122;2024-02-26T14:08:29;6.07;;;4.20;;
39308;SDS011;26019;47.510;19.122;2024-02-26T14:18:31;9.90;;;6.35;;
39308;SDS011;26019;47.510;19.122;2024-02-26T14:28:33;14.90;;;5.88;;
39308;SDS011;26019;47.510;19.122;2024-02-26T14:38:37;8.63;;;6.28;;
39308;SDS011;26019;47.510;19.122;2024-02-26T14:48:41;9.20;;;6.85;;
39308;SDS011;26019;47.510;19.122;2024-02-26T14:58:43;9.82;;;7.40;;
39308;SDS011;26019;47.510;19.122;2024-02-26T15:08:44;9.68;;;7.53;;
39308;SDS011;26019;47.510;19.122;2024-02-26T15:18:46;10.35;;;8.77;;
39308;SDS011;26019;47.510;19.122;2024-02-26T15:38:54;13.38;;;10.35;;
39308;SDS011;26019;47.510;19.122;2024-02-26T15:48:56;14.88;;;12.20;;
39308;SDS011;26019;47.510;19.122;2024-02-26T15:58:58;17.40;;;11.25;;
39308;SDS011;26019;47.510;19.122;2024-02-26T16:09:00;11.50;;;7.03;;
39308;SDS011;26019;47.510;19.122;2024-02-26T16:29:12;13.82;;;7.88;;
39308;SDS011;26019;47.510;19.122;2024-02-26T16:39:20;16.08;;;8.13;;
39308;SDS011;26019;47.510;19.122;2024-02-26T16:49:23;16.88;;;7.68;;
39308;SDS011;26019;47.510;19.122;2024-02-26T16:59:25;13.30;;;7.93;;
39308;SDS011;26019;47.510;19.122;2024-02-26T17:09:30;14.20;;;8.98;;
39308;SDS011;26019;47.510;19.122;2024-02-26T17:19:32;12.77;;;8.73;;
39308;SDS011;26019;47.510;19.122;2024-02-26T17:39:37;26.50;;;11.83;;
39308;SDS011;26019;47.510;19.122;2024-02-26T17:49:38;22.53;;;14.93;;
39308;SDS011;26019;47.510;19.122;2024-02-26T17:59:43;19.40;;;11.38;;
39308;SDS011;26019;47.510;19.122;2024-02-26T18:09:46;30.10;;;13.95;;
39308;SDS011;26019;47.510;19.122;2024-02-26T18:19:48;32.33;;;13.27;;
39308;SDS011;26019;47.510;19.122;2024-02-26T18:29:50;24.80;;;15.50;;
39308;SDS011;26019;47.510;19.122;2024-02-26T18:39:53;35.92;;;19.85;;
39308;SDS011;26019;47.510;19.122;2024-02-26T18:49:55;31.80;;;18.63;;
39308;SDS011;26019;47.510;19.122;2024-02-26T19:00:00;43.70;;;22.38;;
39308;SDS011;26019;47.510;19.122;2024-02-26T19:10:06;43.00;;;25.52;;
39308;SDS011;26019;47.510;19.122;2024-02-26T19:20:10;45.45;;;25.50;;
39308;SDS011;26019;47.510;19.122;2024-02-26T19:30:15;48.40;;;29.70;;
39308;SDS011;26019;47.510;19.122;2024-02-26T19:40:18;44.35;;;28.40;;
39308;SDS011;26019;47.510;19.122;2024-02-26T19:50:22;58.30;;;31.52;;
39308;SDS011;26019;47.510;19.122;2024-02-26T20:00:26;51.90;;;31.05;;
39308;SDS011;26019;47.510;19.122;2024-02-26T20:10:32;58.25;;;31.13;;
39308;SDS011;26019;47.510;19.122;2024-02-26T20:20:36;51.83;;;32.10;;
39308;SDS011;26019;47.510;19.122;2024-02-26T20:30:41;56.15;;;34.28;;
39308;SDS011;26019;47.510;19.122;2024-02-26T20:40:44;62.17;;;34.58;;
39308;SDS011;26019;47.510;19.122;2024-02-26T20:50:47;54.78;;;34.03;;
39308;SDS011;26019;47.510;19.122;2024-02-26T21:00:49;60.45;;;36.80;;
39308;SDS011;26019;47.510;19.122;2024-02-26T21:20:56;60.17;;;38.10;;
39308;SDS011;26019;47.510;19.122;2024-02-26T21:30:59;60.10;;;39.13;;
39308;SDS011;26019;47.510;19.122;2024-02-26T21:41:01;64.87;;;40.40;;
39308;SDS011;26019;47.510;19.122;2024-02-26T21:51:02;75.85;;;41.47;;
39308;SDS011;26019;47.510;19.122;2024-02-26T22:01:06;61.92;;;41.47;;
39308;SDS011;26019;47.510;19.122;2024-02-26T22:11:08;68.63;;;40.93;;
39308;SDS011;26019;47.510;19.122;2024-02-26T22:21:12;69.13;;;42.53;;
39308;SDS011;26019;47.510;19.122;2024-02-26T22:31:15;61.70;;;40.42;;
39308;SDS011;26019;47.510;19.122;2024-02-26T22:41:21;63.63;;;40.58;;
39308;SDS011;26019;47.510;19.122;2024-02-26T22:51:24;63.83;;;40.97;;
39308;SDS011;26019;47.510;19.122;2024-02-26T23:01:25;64.00;;;40.67;;
39308;SDS011;26019;47.510;19.122;2024-02-26T23:11:27;62.13;;;39.67;;
39308;SDS011;26019;47.510;19.122;2024-02-26T23:21:31;65.53;;;39.65;;
39308;SDS011;26019;47.510;19.122;2024-02-26T23:31:36;62.15;;;40.97;;
39308;SDS011;26019;47.510;19.122;2024-02-26T23:41:37;57.00;;;36.42;;
39308;SDS011;26019;47.510;19.122;2024-02-26T23:51:40;56.90;;;36.22;;
